Time;durP1;ratioP1;P1;durP2;ratioP2;P2;SDS_P1;SDS_P2;PMS_P1;PMS_P2;Temp;Humidity;BMP_temperature;BMP_pressure;BME280_temperature;BME280_humidity;BME280_pressure;Samples;Min_cycle;Max_cycle;Signal;HPM_P1;HPM_P2
2024/03/13 00:01:53;;;;;;;4.93;1.55;;;10.90;99.90;;;10.27;100.00;101450.22;4120418;28;20035;-68
2024/03/13 00:03:54;;;;;;;8.70;1.75;;;10.90;99.90;;;10.22;100.00;101453.25;4137946;28;20053;-68
2024/03/13 00:05:55;;;;;;;5.10;1.73;;;10.80;99.90;;;10.15;100.00;101454.78;4137824;28;20034;-68
2024/03/13 00:07:56;;;;;;;7.95;1.52;;;10.80;99.90;;;10.08;100.00;101451.00;4137766;28;20026;-68
2024/03/13 00:10:00;;;;;;;11.50;2.00;;;10.70;99.90;;;10.07;100.00;101448.47;4137466;28;20054;-68
2024/03/13 00:12:00;;;;;;;6.03;1.70;;;10.70;99.90;;;10.06;100.00;101447.66;4136653;28;20034;-68
2024/03/13 00:14:02;;;;;;;5.32;1.30;;;10.70;99.90;;;10.11;100.00;101447.25;4137892;28;20034;-68
2024/03/13 00:16:04;;;;;;;7.38;1.25;;;10.70;99.90;;;10.17;100.00;101449.38;4137728;28;20033;-68
2024/03/13 00:18:05;;;;;;;3.05;1.55;;;10.80;99.90;;;10.24;100.00;101451.34;4137498;28;20022;-68
2024/03/13 00:20:11;;;;;;;5.63;1.83;;;10.80;99.90;;;10.32;100.00;101448.00;4137289;28;20030;-68
2024/03/13 00:22:13;;;;;;;5.38;1.90;;;10.80;99.90;;;10.35;100.00;101445.09;4137692;28;20019;-68
2024/03/13 00:24:16;;;;;;;10.90;2.30;;;10.90;99.90;;;10.40;100.00;101459.53;4119157;28;20062;-68
2024/03/13 00:26:17;;;;;;;9.70;3.30;;;11.00;99.90;;;10.43;100.00;101458.44;4136239;28;20545;-68
2024/03/13 00:28:18;;;;;;;6.57;2.92;;;11.00;99.90;;;10.48;100.00;101464.13;4137637;28;20034;-68
2024/03/13 00:30:19;;;;;;;10.80;1.67;;;11.00;99.90;;;10.46;100.00;101455.50;4137180;28;20026;-68
2024/03/13 00:32:23;;;;;;;6.53;1.27;;;11.10;99.90;;;10.51;100.00;101461.22;4137261;28;20090;-68
2024/03/13 00:34:24;;;;;;;2.33;1.08;;;11.10;99.90;;;10.52;100.00;101462.88;4120388;28;20036;-68
2024/03/13 00:36:25;;;;;;;1.48;0.80;;;11.10;99.90;;;10.54;100.00;101464.41;4136558;28;20034;-68
2024/03/13 00:38:26;;;;;;;2.97;1.10;;;11.10;99.90;;;10.56;100.00;101464.28;4120413;28;20046;-68
2024/03/13 00:40:27;;;;;;;1.25;0.70;;;11.20;99.90;;;10.58;100.00;101464.97;4137257;28;20038;-68
2024/03/13 00:42:28;;;;;;;6.00;1.10;;;11.10;99.90;;;10.59;100.00;101457.88;4137037;28;20034;-68
2024/03/13 00:44:29;;;;;;;2.40;1.40;;;11.20;99.90;;;10.60;100.00;101463.03;4137392;28;20038;-68
2024/03/13 00:46:30;;;;;;;3.67;1.25;;;11.20;99.90;;;10.61;100.00;101453.28;4137194;28;20486;-68
2024/03/13 00:48:31;;;;;;;2.30;1.25;;;11.20;99.90;;;10.58;100.00;101451.78;4117516;28;20027;-68
2024/03/13 00:50:33;;;;;;;8.02;1.77;;;11.20;99.90;;;10.53;100.00;101451.38;4141513;28;20409;-68
2024/03/13 00:52:35;;;;;;;2.45;1.70;;;11.10;99.90;;;10.48;100.00;101459.66;4137066;28;20478;-68
2024/03/13 00:54:36;;;;;;;4.40;2.35;;;11.10;99.90;;;10.45;100.00;101464.41;4137059;28;20121;-68
2024/03/13 00:56:37;;;;;;;5.40;1.90;;;11.00;99.90;;;10.39;100.00;101462.31;4134497;28;20026;-68
2024/03/13 00:58:38;;;;;;;5.97;2.22;;;11.00;99.90;;;10.38;100.00;101463.28;4122945;28;20027;-68
2024/03/13 01:00:39;;;;;;;5.22;1.90;;;11.00;99.90;;;10.37;100.00;101466.88;4137157;28;20085;-68
2024/03/13 01:02:44;;;;;;;6.07;2.08;;;10.90;99.90;;;10.38;100.00;101460.66;4136975;28;20034;-68
2024/03/13 01:04:48;;;;;;;4.50;1.92;;;11.00;99.90;;;10.38;100.00;101468.56;4136529;28;20030;-68
2024/03/13 01:06:49;;;;;;;3.78;2.40;;;11.00;99.90;;;10.38;100.00;101463.28;4119926;28;20031;-68
2024/03/13 01:08:50;;;;;;;5.55;2.72;;;11.00;99.90;;;10.37;100.00;101465.09;4137068;28;20078;-68
2024/03/13 01:10:53;;;;;;;3.85;2.13;;;11.00;99.90;;;10.37;100.00;101457.16;4136730;28;20082;-68
2024/03/13 01:12:54;;;;;;;5.85;2.22;;;11.00;99.90;;;10.37;100.00;101457.16;4136891;28;20076;-68
2024/03/13 01:14:55;;;;;;;4.97;2.42;;;11.00;99.90;;;10.39;100.00;101465.78;4136550;28;20039;-68
2024/03/13 01:16:58;;;;;;;5.57;2.65;;;11.00;99.90;;;10.41;100.00;101463.84;4136838;28;20023;-68
2024/03/13 01:18:59;;;;;;;8.20;2.75;;;11.00;99.90;;;10.41;100.00;101463.00;4136741;28;20513;-68
2024/03/13 01:21:00;;;;;;;7.13;2.20;;;11.00;99.90;;;10.43;100.00;101464.53;4136401;28;20034;-68
2024/03/13 01:23:00;;;;;;;8.48;2.17;;;11.00;99.90;;;10.46;100.00;101473.97;4135432;28;20026;-67
2024/03/13 01:25:01;;;;;;;8.05;2.03;;;11.00;99.90;;;10.48;100.00;101464.13;4136632;28;20033;-68
2024/03/13 01:27:03;;;;;;;5.28;1.77;;;11.10;99.90;;;10.48;100.00;101454.41;4136726;28;20482;-68
2024/03/13 01:29:04;;;;;;;6.30;1.67;;;11.10;99.90;;;10.53;100.00;101468.03;4135380;28;20061;-68
2024/03/13 01:31:06;;;;;;;6.00;2.70;;;11.10;99.90;;;10.52;100.00;101462.88;4136231;28;20058;-68
2024/03/13 01:33:08;;;;;;;13.68;5.60;;;11.10;99.90;;;10.55;100.00;101460.81;4119306;28;20037;-68
2024/03/13 01:35:12;;;;;;;9.88;3.90;;;11.10;99.90;;;10.58;100.00;101467.59;4134770;28;20062;-68
2024/03/13 01:39:32;;;;;;;12.82;4.20;;;11.20;99.90;;;10.64;100.00;101458.28;4123094;28;20502;-68
2024/03/13 01:55:45;;;;;;;4.20;2.20;;;11.20;99.90;;;10.63;100.00;101446.09;4151435;28;20033;-68
2024/03/13 02:02:24;;;;;;;;;;;11.30;99.90;;;10.63;100.00;101441.66;4152872;28;20045;-68
2024/03/13 02:04:25;;;;;;;13.40;3.13;;;11.30;99.90;;;10.66;100.00;101437.91;4146011;28;20009;-68
2024/03/13 02:06:28;;;;;;;14.02;3.25;;;11.30;99.90;;;10.73;100.00;101442.47;4135902;28;20487;-68
2024/03/13 02:08:29;;;;;;;8.20;2.85;;;11.30;99.90;;;10.72;100.00;101432.88;4135929;28;20033;-68
2024/03/13 02:10:30;;;;;;;10.77;2.88;;;11.30;99.90;;;10.73;100.00;101436.34;4136288;28;20066;-68
2024/03/13 02:12:31;;;;;;;16.13;3.35;;;11.40;99.90;;;10.73;100.00;101428.44;4136007;28;20109;-68
2024/03/13 02:14:33;;;;;;;8.50;3.28;;;11.30;99.90;;;10.75;100.00;101429.94;4134943;28;20069;-68
2024/03/13 02:16:34;;;;;;;9.52;3.30;;;11.40;99.90;;;10.76;100.00;101434.28;4118575;28;20030;-68
2024/03/13 02:18:36;;;;;;;8.43;2.80;;;11.30;99.90;;;10.77;100.00;101433.31;4136088;28;20505;-68
2024/03/13 02:20:37;;;;;;;12.63;3.75;;;11.40;99.90;;;10.75;100.00;101435.22;4134670;28;20032;-67
2024/03/13 02:22:38;;;;;;;13.40;3.40;;;11.30;99.90;;;10.73;100.00;101436.34;4118688;28;20495;-68
2024/03/13 02:24:39;;;;;;;10.02;2.88;;;11.30;99.90;;;10.70;100.00;101437.47;4135933;28;20031;-68
2024/03/13 02:26:40;;;;;;;13.43;3.45;;;11.30;99.90;;;10.70;100.00;101426.06;4134885;28;20093;-68
2024/03/13 02:28:42;;;;;;;10.18;2.90;;;11.30;99.90;;;10.70;100.00;101437.47;4134914;28;20509;-68
2024/03/13 02:30:42;;;;;;;14.85;3.10;;;11.30;99.90;;;10.71;100.00;101420.69;4135745;28;20047;-68
2024/03/13 02:32:47;;;;;;;16.88;3.20;;;11.30;99.90;;;10.67;100.00;101421.91;4135702;28;20486;-68
2024/03/13 02:34:49;;;;;;;9.85;2.80;;;11.30;99.90;;;10.74;100.00;101422.19;4135779;28;20023;-68
2024/03/13 02:36:51;;;;;;;8.32;2.92;;;11.30;99.90;;;10.72;100.00;101418.88;4135811;28;20093;-68
2024/03/13 02:38:52;;;;;;;10.02;3.20;;;11.30;99.90;;;10.72;100.00;101411.75;4146125;28;20026;-68
2024/03/13 02:40:53;;;;;;;7.80;2.97;;;11.40;99.90;;;10.71;100.00;101410.13;4152012;28;20084;-68
2024/03/13 02:42:54;;;;;;;10.77;3.15;;;11.30;99.90;;;10.75;100.00;101408.84;4134674;28;20069;-68
2024/03/13 02:44:55;;;;;;;8.82;2.38;;;11.30;99.90;;;10.75;100.00;101400.13;4142279;28;20022;-68
2024/03/13 02:46:56;;;;;;;11.10;3.47;;;11.40;99.90;;;10.76;100.00;101399.97;4135947;28;20022;-68
2024/03/13 02:48:57;;;;;;;11.82;3.65;;;11.40;99.90;;;10.78;100.00;101405.13;4138357;28;20018;-68
2024/03/13 02:50:58;;;;;;;11.85;3.25;;;11.30;99.90;;;10.78;100.00;101399.84;4138732;28;20030;-68
2024/03/13 02:52:58;;;;;;;10.95;3.72;;;11.30;99.90;;;10.76;100.00;101393.84;4138913;28;20030;-67
2024/03/13 02:54:59;;;;;;;11.32;3.05;;;11.40;99.90;;;10.74;100.00;101390.53;4137685;28;20145;-68
2024/03/13 02:57:00;;;;;;;9.80;2.92;;;11.40;99.90;;;10.69;100.00;101396.25;4105401;29;20502;-68
2024/03/13 02:59:01;;;;;;;12.32;3.10;;;11.30;99.90;;;10.64;100.00;101394.97;4138947;28;20031;-68
2024/03/13 03:01:02;;;;;;;10.70;3.90;;;11.30;99.90;;;10.60;100.00;101389.16;4138676;28;20026;-68
2024/03/13 03:03:03;;;;;;;13.50;3.78;;;11.20;99.90;;;10.56;100.00;101393.06;4121656;28;20035;-68
2024/03/13 03:05:04;;;;;;;12.27;3.55;;;11.20;99.90;;;10.55;100.00;101384.28;4121115;28;20099;-68
2024/03/13 03:07:05;;;;;;;18.05;4.38;;;11.20;99.90;;;10.59;100.00;101392.78;4125986;28;20027;-67
2024/03/13 03:09:06;;;;;;;14.63;4.07;;;11.20;99.90;;;10.56;100.00;101387.78;4145405;28;20033;-68
2024/03/13 03:11:07;;;;;;;10.50;3.53;;;11.20;99.90;;;10.60;100.00;101391.81;4154906;28;20551;-68
2024/03/13 03:13:10;;;;;;;9.77;3.47;;;11.20;99.90;;;10.61;100.00;101389.97;4154804;28;20086;-68
2024/03/13 03:15:11;;;;;;;12.68;4.07;;;11.20;99.90;;;10.60;100.00;101386.53;4143205;28;20054;-68
2024/03/13 03:17:14;;;;;;;11.00;3.60;;;11.20;99.90;;;10.58;100.00;101385.81;4121308;28;20022;-68
2024/03/13 03:19:19;;;;;;;8.02;2.83;;;11.20;99.90;;;10.56;100.00;101385.13;4138550;28;20107;-68
2024/03/13 03:21:22;;;;;;;17.75;5.38;;;11.20;99.90;;;10.55;100.00;101386.94;4138094;28;20030;-68
2024/03/13 03:23:23;;;;;;;12.65;4.88;;;11.20;99.90;;;10.55;100.00;101388.72;4138802;28;20037;-68
2024/03/13 03:25:24;;;;;;;12.98;3.15;;;11.20;99.90;;;10.54;100.00;101387.91;4138367;28;20026;-67
2024/03/13 03:27:25;;;;;;;9.95;3.35;;;11.20;99.90;;;10.57;100.00;101383.34;4138441;28;20036;-68
2024/03/13 03:29:27;;;;;;;14.50;4.25;;;11.20;99.90;;;10.59;100.00;101386.66;4137261;28;20387;-68
2024/03/13 03:31:28;;;;;;;9.73;4.22;;;11.20;99.90;;;10.57;100.00;101378.06;4138106;28;20053;-68
2024/03/13 03:33:29;;;;;;;11.55;4.00;;;11.20;99.90;;;10.57;100.00;101384.97;4138509;28;20468;-68
2024/03/13 03:35:30;;;;;;;13.75;3.63;;;11.20;99.90;;;10.59;100.00;101395.41;4136828;28;20031;-68
2024/03/13 03:37:31;;;;;;;10.65;3.83;;;11.20;99.90;;;10.59;100.00;101384.00;4138246;28;20045;-68
2024/03/13 03:39:35;;;;;;;8.50;3.05;;;11.20;99.90;;;10.61;100.00;101388.19;4154688;28;20026;-68
2024/03/13 03:41:38;;;;;;;15.15;4.47;;;11.20;99.90;;;10.61;100.00;101382.91;4154474;28;20030;-68
2024/03/13 03:43:39;;;;;;;16.75;3.92;;;11.20;99.90;;;10.57;100.00;101384.16;4154402;28;20033;-68
2024/03/13 03:45:40;;;;;;;12.35;4.70;;;11.20;99.90;;;10.55;100.00;101381.66;4139090;28;20478;-68
2024/03/13 03:47:41;;;;;;;14.38;4.35;;;11.20;99.90;;;10.55;100.00;101388.72;4138208;28;20022;-68
2024/03/13 03:49:42;;;;;;;18.38;4.72;;;11.20;99.90;;;10.56;100.00;101393.06;4136787;28;20026;-68
2024/03/13 03:51:44;;;;;;;11.43;3.85;;;11.20;99.90;;;10.55;100.00;101386.94;4120769;28;20034;-68
2024/03/13 03:53:45;;;;;;;15.57;5.00;;;11.20;99.90;;;10.53;100.00;101388.06;4136740;28;20026;-68
2024/03/13 03:55:46;;;;;;;16.83;5.40;;;11.20;99.90;;;10.54;100.00;101387.91;4136703;28;20026;-68
2024/03/13 03:57:46;;;;;;;12.77;4.80;;;11.20;99.90;;;10.51;100.00;101379.47;4137999;28;20033;-67
2024/03/13 03:59:47;;;;;;;12.98;5.70;;;11.20;99.90;;;10.54;100.00;101390.53;4137867;28;20022;-68
2024/03/13 04:01:49;;;;;;;16.70;5.30;;;11.20;99.90;;;10.54;100.00;101389.72;4137803;28;20026;-68
2024/03/13 04:03:50;;;;;;;17.95;5.65;;;11.20;99.90;;;10.53;100.00;101388.06;4137854;28;20023;-68
2024/03/13 04:05:51;;;;;;;16.42;5.35;;;11.20;99.90;;;10.50;100.00;101386.53;4126604;28;20030;-67
2024/03/13 04:07:52;;;;;;;18.27;5.70;;;11.10;99.90;;;10.47;100.00;101384.16;4138037;28;20363;-68
2024/03/13 04:09:53;;;;;;;14.73;5.15;;;11.10;99.90;;;10.46;100.00;101381.66;4137769;28;20101;-68
2024/03/13 04:11:54;;;;;;;14.48;5.13;;;11.10;99.90;;;10.47;100.00;101383.34;4137598;28;20097;-68
2024/03/13 04:13:54;;;;;;;11.18;4.70;;;11.00;99.90;;;10.47;100.00;101388.59;4137687;28;20035;-68
2024/03/13 04:15:56;;;;;;;13.27;5.00;;;11.10;99.90;;;10.47;100.00;101391.25;4137667;28;20026;-68
2024/03/13 04:17:56;;;;;;;13.93;5.13;;;11.10;99.90;;;10.47;100.00;101388.59;4136343;28;20033;-68
2024/03/13 04:20:00;;;;;;;16.27;6.82;;;11.10;99.90;;;10.48;100.00;101392.94;4137429;28;20030;-68
2024/03/13 04:22:01;;;;;;;18.40;5.35;;;11.10;99.90;;;10.46;100.00;101392.22;4120198;28;20082;-68
2024/03/13 04:24:02;;;;;;;12.40;4.97;;;11.10;99.90;;;10.47;100.00;101388.59;4120247;28;20538;-68
2024/03/13 04:26:03;;;;;;;10.82;4.22;;;11.10;99.90;;;10.48;100.00;101382.38;4137501;28;20105;-68
2024/03/13 04:28:04;;;;;;;11.05;5.22;;;11.00;99.90;;;10.48;100.00;101387.66;4137319;28;20073;-67
2024/03/13 04:30:05;;;;;;;17.83;5.60;;;11.10;99.90;;;10.46;100.00;101389.56;4136277;28;20089;-68
2024/03/13 04:32:08;;;;;;;13.73;5.53;;;11.00;99.90;;;10.43;100.00;101382.78;4137244;28;20049;-68
2024/03/13 04:34:09;;;;;;;10.57;4.25;;;11.10;99.90;;;10.47;100.00;101386.81;4137458;28;20040;-67
2024/03/13 04:36:10;;;;;;;8.77;3.80;;;11.10;99.90;;;10.49;100.00;101389.28;4137004;28;20506;-68
2024/03/13 04:38:14;;;;;;;14.98;4.32;;;11.10;99.90;;;10.46;100.00;101382.50;4142754;28;20029;-68
2024/03/13 04:40:15;;;;;;;11.40;3.85;;;11.10;99.90;;;10.45;100.00;101382.66;4153530;28;20030;-68
2024/03/13 04:42:17;;;;;;;15.88;4.90;;;11.10;99.90;;;10.48;100.00;101395.56;4153563;28;20448;-68
2024/03/13 04:44:18;;;;;;;11.77;4.15;;;11.10;99.90;;;10.45;100.00;101386.09;4150320;28;20030;-68
2024/03/13 04:46:18;;;;;;;15.43;5.28;;;11.10;99.90;;;10.45;100.00;101380.00;4136573;28;20097;-67
2024/03/13 04:48:20;;;;;;;11.70;4.70;;;11.10;99.90;;;10.45;100.00;101388.72;4137098;28;20018;-68
2024/03/13 04:50:20;;;;;;;16.35;4.88;;;11.10;99.90;;;10.43;100.00;101389.84;4137049;28;20030;-68
2024/03/13 04:52:23;;;;;;;8.82;4.65;;;11.10;99.90;;;10.42;100.00;101389.00;4136802;28;20029;-68
2024/03/13 04:54:23;;;;;;;12.35;4.00;;;11.00;99.90;;;10.44;100.00;101388.88;4137154;28;20030;-68
2024/03/13 04:56:24;;;;;;;15.70;3.75;;;11.10;99.90;;;10.43;100.00;101393.31;4137053;28;20390;-68
2024/03/13 04:58:25;;;;;;;13.20;3.85;;;11.10;99.90;;;10.47;100.00;101405.28;4135915;28;20429;-68
2024/03/13 05:00:26;;;;;;;11.30;3.60;;;11.10;99.90;;;10.48;100.00;101403.47;4136744;28;20030;-68
2024/03/13 05:02:27;;;;;;;9.50;3.50;;;11.10;99.90;;;10.48;100.00;101406.13;4136877;28;20038;-68
2024/03/13 05:04:28;;;;;;;10.88;3.75;;;11.10;99.90;;;10.46;100.00;101395.69;4137407;28;20058;-68
2024/03/13 05:06:29;;;;;;;8.45;3.55;;;11.10;99.90;;;10.45;100.00;101398.47;4114639;28;20443;-67
2024/03/13 05:08:30;;;;;;;10.10;3.03;;;11.10;99.90;;;10.48;100.00;101396.38;4151225;28;20026;-68
2024/03/13 05:10:30;;;;;;;8.15;2.35;;;11.10;99.90;;;10.48;100.00;101392.94;4136183;28;20038;-68
2024/03/13 05:12:36;;;;;;;10.77;2.83;;;11.10;99.90;;;10.48;100.00;101395.56;4136859;28;20037;-68
2024/03/13 05:14:37;;;;;;;22.58;3.33;;;11.10;99.90;;;10.46;100.00;101394.84;4136897;28;20086;-67
2024/03/13 05:16:41;;;;;;;9.95;2.88;;;11.10;99.90;;;10.45;100.00;101395.84;4136559;28;20022;-68
2024/03/13 05:18:43;;;;;;;10.10;3.65;;;11.10;99.90;;;10.45;100.00;101387.94;4119432;28;20026;-67
2024/03/13 05:20:43;;;;;;;9.30;3.75;;;11.10;99.90;;;10.42;100.00;101385.56;4136412;28;20034;-68
2024/03/13 05:22:46;;;;;;;12.95;3.13;;;11.00;99.90;;;10.42;100.00;101390.84;4136479;28;20089;-68
2024/03/13 05:24:49;;;;;;;13.27;3.03;;;11.00;99.90;;;10.42;100.00;101390.84;4135292;28;20011;-67
2024/03/13 05:26:51;;;;;;;9.05;3.10;;;11.00;99.90;;;10.41;100.00;101394.44;4136772;28;20489;-68
2024/03/13 05:28:54;;;;;;;7.78;3.33;;;11.00;99.90;;;10.40;100.00;101387.50;4136572;28;20022;-67
2024/03/13 05:30:55;;;;;;;8.50;2.55;;;11.00;99.90;;;10.39;100.00;101394.56;4135217;28;20053;-67
2024/03/13 05:32:59;;;;;;;9.00;3.22;;;11.10;99.90;;;10.41;100.00;101397.91;4135127;28;20398;-68
2024/03/13 05:35:00;;;;;;;7.47;2.45;;;11.00;99.90;;;10.40;100.00;101387.50;4119427;28;20027;-68
2024/03/13 05:37:00;;;;;;;7.80;3.95;;;11.00;99.90;;;10.36;100.00;101375.56;4135172;28;20045;-68
2024/03/13 05:39:02;;;;;;;4.10;2.40;;;11.00;99.90;;;10.40;100.00;101388.31;4148589;28;20026;-68
2024/03/13 05:41:03;;;;;;;6.65;2.65;;;11.10;99.90;;;10.41;100.00;101394.44;4151302;28;20449;-68
2024/03/13 05:43:03;;;;;;;4.45;2.38;;;11.00;99.90;;;10.41;100.00;101390.00;4152734;28;20084;-68
2024/03/13 05:45:08;;;;;;;8.20;2.20;;;11.10;99.90;;;10.41;100.00;101395.28;4126844;28;20066;-68
2024/03/13 05:47:09;;;;;;;6.93;2.80;;;11.00;99.90;;;10.38;100.00;101398.19;4119272;28;20109;-67
2024/03/13 05:49:11;;;;;;;4.72;2.17;;;11.00;99.90;;;10.35;100.00;101395.00;4136288;28;20022;-68
2024/03/13 05:51:12;;;;;;;11.95;2.83;;;11.00;99.90;;;10.33;100.00;101387.25;4135979;28;20034;-68
2024/03/13 05:53:13;;;;;;;8.45;3.00;;;11.00;99.90;;;10.24;100.00;101389.88;4136214;28;20371;-68
2024/03/13 05:55:14;;;;;;;9.98;2.78;;;10.90;99.90;;;10.23;100.00;101390.81;4136117;28;20022;-68
2024/03/13 05:57:15;;;;;;;6.65;2.30;;;10.90;99.90;;;10.20;100.00;101394.56;4118967;28;20446;-68
2024/03/13 05:59:16;;;;;;;4.15;2.00;;;10.80;99.90;;;10.24;100.00;101400.41;4136266;28;20030;-68
2024/03/13 06:01:22;;;;;;;5.45;1.98;;;10.80;99.90;;;10.23;100.00;101391.66;4136077;28;20035;-68
2024/03/13 06:03:25;;;;;;;9.98;2.90;;;10.90;99.90;;;10.26;100.00;101401.09;4136023;28;20026;-68
2024/03/13 06:05:26;;;;;;;4.23;2.00;;;10.90;99.90;;;10.24;100.00;101387.22;4135826;28;20093;-68
2024/03/13 06:07:27;;;;;;;12.02;2.08;;;10.80;99.90;;;10.25;100.00;101383.59;4136205;28;20272;-68
2024/03/13 06:09:28;;;;;;;5.22;1.90;;;10.80;99.90;;;10.20;100.00;101385.81;4136051;28;20030;-68
2024/03/13 06:11:29;;;;;;;7.20;2.38;;;10.80;99.90;;;10.15;100.00;101380.97;4135951;28;20511;-68
2024/03/13 06:13:29;;;;;;;6.15;1.50;;;10.80;99.90;;;10.07;100.00;101379.94;4134934;28;20034;-68
2024/03/13 06:15:31;;;;;;;8.40;1.90;;;10.80;99.90;;;10.03;100.00;101374.94;4135852;28;20029;-68
2024/03/13 06:17:34;;;;;;;5.43;1.10;;;10.70;99.90;;;10.05;100.00;101376.63;4134847;28;20034;-68
2024/03/13 06:19:35;;;;;;;5.63;2.17;;;10.70;99.90;;;10.04;100.00;101378.41;4135897;28;20027;-68
2024/03/13 06:21:36;;;;;;;5.32;1.63;;;10.70;99.90;;;10.04;100.00;101370.50;4136007;28;20449;-68
2024/03/13 06:23:38;;;;;;;8.93;1.50;;;10.70;99.90;;;10.05;100.00;101366.06;4138850;28;20437;-68
2024/03/13 06:25:41;;;;;;;7.25;2.05;;;10.70;99.90;;;9.98;100.00;101364.00;4139292;28;20061;-68
2024/03/13 06:27:42;;;;;;;5.65;1.60;;;10.70;99.90;;;9.95;100.00;101374.81;4138321;28;20461;-68
2024/03/13 06:29:56;;;;;;;4.13;1.40;;;10.60;99.90;;;9.92;100.00;101374.22;4138022;28;20038;-68
2024/03/13 06:31:57;;;;;;;6.47;1.20;;;10.60;99.90;;;9.86;100.00;101372.97;4139106;28;20104;-68
2024/03/13 06:33:59;;;;;;;4.95;1.70;;;10.50;99.90;;;9.80;100.00;101378.78;4121906;28;20503;-68
2024/03/13 06:36:00;;;;;;;6.80;1.20;;;10.50;99.90;;;9.68;100.00;101364.06;4138949;28;20066;-68
2024/03/13 06:38:01;;;;;;;7.88;1.38;;;10.40;99.90;;;9.63;100.00;101368.91;4142449;28;20033;-68
2024/03/13 06:40:03;;;;;;;3.28;0.90;;;10.30;99.90;;;9.61;100.00;101367.38;4131695;28;20027;-68
2024/03/13 06:42:04;;;;;;;4.18;1.20;;;10.30;99.90;;;9.57;100.00;101360.72;4139066;28;20417;-68
2024/03/13 06:44:05;;;;;;;6.38;1.88;;;10.20;99.90;;;9.56;100.00;101365.13;4137816;28;20094;-67
2024/03/13 06:46:07;;;;;;;3.80;1.77;;;10.20;99.90;;;9.57;100.00;101364.19;4139107;28;20022;-68
2024/03/13 06:48:08;;;;;;;4.80;1.60;;;10.20;99.90;;;9.61;100.00;101370.03;4139069;28;20035;-67
2024/03/13 06:50:08;;;;;;;5.22;1.58;;;10.20;99.90;;;9.63;100.00;101371.56;4138578;28;20019;-67
2024/03/13 06:52:12;;;;;;;5.05;1.60;;;10.20;99.90;;;9.71;100.00;101368.22;4138682;28;20395;-67
2024/03/13 06:54:13;;;;;;;7.20;2.08;;;10.30;99.90;;;9.78;100.00;101364.94;4138763;28;20487;-68
2024/03/13 06:56:14;;;;;;;10.75;1.63;;;10.40;99.90;;;9.85;100.00;101368.69;4146151;28;20037;-68
2024/03/13 06:58:15;;;;;;;5.07;1.90;;;10.40;99.90;;;9.93;100.00;101363.56;4155255;28;20026;-68
2024/03/13 07:00:16;;;;;;;8.60;1.58;;;10.50;99.90;;;9.99;100.00;101356.91;4154925;28;20057;-67
2024/03/13 07:02:17;;;;;;;4.15;2.10;;;10.60;99.90;;;10.01;100.00;101362.88;4155144;28;20068;-68
2024/03/13 07:04:18;;;;;;;5.90;1.50;;;10.60;99.90;;;10.07;100.00;101358.84;4136611;28;20022;-67
2024/03/13 07:06:19;;;;;;;5.93;1.58;;;10.70;99.90;;;10.11;100.00;101365.53;4138870;28;20038;-68
2024/03/13 07:08:20;;;;;;;8.15;2.72;;;10.70;99.90;;;10.17;100.00;101357.94;4138533;28;20038;-67
2024/03/13 07:10:21;;;;;;;4.28;1.17;;;10.70;99.90;;;10.27;100.00;101361.41;4140698;28;20032;-68
2024/03/13 07:12:24;;;;;;;8.10;1.27;;;10.80;99.90;;;10.31;100.00;101356.69;4154986;28;20030;-68
2024/03/13 07:14:25;;;;;;;8.77;1.75;;;10.90;99.90;;;10.37;100.00;101362.22;4136202;28;20022;-67
2024/03/13 07:16:26;;;;;;;5.63;1.65;;;10.90;99.90;;;10.40;100.00;101355.84;4138430;28;20500;-67
2024/03/13 07:18:27;;;;;;;4.60;1.50;;;10.90;99.90;;;10.46;100.00;101360.56;4138615;28;20022;-67
2024/03/13 07:20:28;;;;;;;5.75;1.50;;;11.00;99.90;;;10.48;100.00;101359.44;4137253;28;20030;-67
2024/03/13 07:22:29;;;;;;;5.28;2.47;;;11.10;99.90;;;10.51;100.00;101359.16;4138461;28;20030;-67
2024/03/13 07:24:30;;;;;;;3.55;2.08;;;11.10;99.90;;;10.53;100.00;101361.66;4138383;28;20113;-67
2024/03/13 07:26:34;;;;;;;4.50;2.13;;;11.10;99.90;;;10.52;100.00;101360.84;4138414;28;20042;-67
2024/03/13 07:28:38;;;;;;;7.22;1.92;;;11.10;99.90;;;10.59;100.00;101363.75;4137290;28;20026;-67
2024/03/13 07:30:39;;;;;;;5.47;2.25;;;11.20;99.90;;;10.65;100.00;101355.28;4138206;28;20057;-67
2024/03/13 07:32:41;;;;;;;6.40;1.83;;;11.20;99.90;;;10.76;100.00;101355.09;4137032;28;20446;-67
2024/03/13 07:34:43;;;;;;;9.48;2.70;;;11.30;99.90;;;10.82;100.00;101357.19;4137767;28;20025;-67
2024/03/13 07:36:43;;;;;;;3.80;1.77;;;11.40;99.90;;;10.90;100.00;101359.13;4138346;28;20102;-67
2024/03/13 07:38:45;;;;;;;5.85;3.25;;;11.40;99.90;;;10.92;100.00;101362.44;4147234;28;20030;-67
2024/03/13 07:40:46;;;;;;;3.55;1.98;;;11.40;99.90;;;10.94;100.00;101363.94;4154483;28;20040;-67
2024/03/13 07:42:47;;;;;;;7.50;2.00;;;11.50;99.90;;;10.95;100.00;101357.72;4154409;28;20026;-67
2024/03/13 07:44:50;;;;;;;6.47;2.08;;;11.50;99.90;;;10.99;100.00;101366.97;4150196;28;20030;-67
2024/03/13 07:46:51;;;;;;;7.28;1.55;;;11.50;99.90;;;11.04;100.00;101367.41;4138333;28;20037;-67
2024/03/13 07:48:52;;;;;;;9.63;2.75;;;11.50;99.90;;;11.07;100.00;101367.13;4137945;28;20022;-67
2024/03/13 07:50:53;;;;;;;4.32;1.58;;;11.60;99.90;;;11.17;100.00;101366.25;4137889;28;20022;-67
2024/03/13 07:52:53;;;;;;;6.32;1.77;;;11.60;99.90;;;11.30;100.00;101367.56;4137991;28;20041;-67
2024/03/13 07:54:54;;;;;;;6.53;2.30;;;11.70;99.90;;;11.35;100.00;101361.88;4137001;28;20026;-68
2024/03/13 07:56:55;;;;;;;6.95;2.10;;;11.80;99.90;;;11.41;100.00;101363.94;4137902;28;20030;-67
2024/03/13 07:58:56;;;;;;;6.65;3.10;;;11.80;99.90;;;11.44;100.00;101355.72;4136730;28;20467;-67
2024/03/13 08:00:58;;;;;;;10.23;3.22;;;11.90;99.90;;;11.54;100.00;101359.97;4120740;28;20041;-67
2024/03/13 08:02:58;;;;;;;5.93;2.22;;;12.00;99.90;;;11.53;100.00;101368.84;4137835;28;20379;-67
2024/03/13 08:05:01;;;;;;;4.20;2.20;;;12.00;99.90;;;11.53;100.00;101368.03;4137611;28;20050;-67
2024/03/13 08:07:03;;;;;;;8.25;2.78;;;12.00;99.90;;;11.54;100.00;101369.69;4123514;28;20022;-67
2024/03/13 08:09:05;;;;;;;6.07;2.58;;;12.00;99.90;;;11.55;100.00;101374.00;4138001;28;20065;-67
2024/03/13 08:11:06;;;;;;;8.43;3.00;;;12.10;99.90;;;11.56;100.00;101376.50;4137778;28;20026;-67
2024/03/13 08:13:07;;;;;;;6.15;2.10;;;12.10;99.90;;;11.72;100.00;101381.16;4137682;28;20085;-67
2024/03/13 08:15:09;;;;;;;8.57;3.38;;;12.10;99.90;;;11.70;100.00;101377.03;4134854;28;20011;-68
2024/03/13 08:17:10;;;;;;;10.15;3.15;;;12.10;99.90;;;11.59;100.00;101378.00;4142174;28;20029;-68
2024/03/13 08:19:11;;;;;;;8.10;2.85;;;12.00;99.90;;;11.40;100.00;101375.47;4153094;28;20389;-68
2024/03/13 08:21:12;;;;;;;7.15;2.47;;;11.90;99.90;;;11.23;100.00;101378.88;4153143;28;20030;-68
2024/03/13 08:23:12;;;;;;;8.45;2.50;;;11.80;99.90;;;11.17;100.00;101382.91;4152977;28;20026;-68
2024/03/13 08:25:16;;;;;;;6.45;2.38;;;11.70;99.90;;;11.21;100.00;101386.09;4146012;28;20541;-68
2024/03/13 08:27:18;;;;;;;8.18;2.13;;;11.80;99.90;;;11.27;100.00;101378.44;4137217;28;20023;-68
2024/03/13 08:29:19;;;;;;;7.95;2.78;;;11.90;99.90;;;11.49;100.00;101385.16;4136600;28;20041;-69
2024/03/13 08:31:19;;;;;;;6.40;1.80;;;12.00;99.90;;;11.57;100.00;101390.53;4135785;28;20050;-68
2024/03/13 08:33:20;;;;;;;6.18;1.90;;;12.20;99.90;;;11.57;100.00;101383.44;4137564;28;20030;-69
2024/03/13 08:35:21;;;;;;;7.30;2.22;;;12.20;99.90;;;11.53;100.00;101384.72;4135967;28;20029;-68
2024/03/13 08:37:22;;;;;;;3.67;1.77;;;12.20;99.90;;;11.46;100.00;101382.81;4120175;28;20019;-68
2024/03/13 08:39:27;;;;;;;9.05;2.30;;;12.10;99.90;;;11.44;100.00;101390.06;4136082;28;20025;-69
2024/03/13 08:41:31;;;;;;;6.93;1.98;;;12.00;99.90;;;11.42;100.00;101398.13;4137274;28;20030;-69